Time;durP1;ratioP1;P1;durP2;ratioP2;P2;SDS_P1;SDS_P2;PMS_P1;PMS_P2;Temp;Humidity;BMP_temperature;BMP_pressure;BME280_temperature;BME280_humidity;BME280_pressure;Samples;Min_cycle;Max_cycle;Signal;HPM_P1;HPM_P2
2022/07/20 00:01:50;;;;;;;8.00;3.38;;;25.30;51.90;;;;;;5013188;28;20085;-43
2022/07/20 00:04:17;;;;;;;10.30;3.72;;;25.20;51.60;;;;;;5013679;28;20150;-42
2022/07/20 00:06:44;;;;;;;6.22;2.85;;;25.20;51.60;;;;;;5015361;28;20468;-44
2022/07/20 00:11:56;;;;;;;6.40;3.10;;;25.10;51.90;;;;;;5011149;28;20494;-43
2022/07/20 00:14:23;;;;;;;8.18;3.17;;;25.10;51.90;;;;;;5010349;28;20057;-43
2022/07/20 00:16:50;;;;;;;11.20;3.65;;;25.10;52.00;;;;;;5013906;28;20077;-43
2022/07/20 00:19:17;;;;;;;8.82;2.88;;;25.00;51.90;;;;;;5012294;28;20092;-43
2022/07/20 00:21:43;;;;;;;8.70;2.83;;;25.00;52.10;;;;;;5014123;28;20045;-44
2022/07/20 00:24:10;;;;;;;7.15;2.95;;;25.00;52.20;;;;;;5013047;28;20143;-43
2022/07/20 00:26:37;;;;;;;4.97;3.22;;;24.90;52.30;;;;;;5008565;28;20085;-43
2022/07/20 00:29:05;;;;;;;8.40;3.10;;;24.90;52.30;;;;;;5013712;28;20446;-43
2022/07/20 00:31:32;;;;;;;7.75;2.80;;;24.90;52.50;;;;;;5011821;28;20177;-44
2022/07/20 00:33:59;;;;;;;5.20;2.75;;;24.80;52.40;;;;;;5012893;28;20053;-43
2022/07/20 00:36:25;;;;;;;6.82;3.30;;;24.80;52.70;;;;;;5014900;28;20050;-43
2022/07/20 00:38:52;;;;;;;9.45;3.40;;;24.70;52.70;;;;;;5015173;28;20540;-43
2022/07/20 00:41:19;;;;;;;5.40;3.10;;;24.70;52.70;;;;;;5014567;28;20132;-43
2022/07/20 00:43:56;;;;;;;5.10;2.70;;;24.70;52.80;;;;;;5012030;28;20077;-42
2022/07/20 00:46:24;;;;;;;4.97;3.10;;;24.70;52.90;;;;;;5011903;28;20073;-43
2022/07/20 00:48:51;;;;;;;7.15;3.25;;;24.60;53.10;;;;;;5012377;28;20152;-44
2022/07/20 00:51:18;;;;;;;8.23;2.90;;;24.60;53.00;;;;;;5013594;28;20124;-42
2022/07/20 00:53:45;;;;;;;9.57;3.13;;;24.50;53.10;;;;;;5020468;28;20136;-44
2022/07/20 00:56:12;;;;;;;7.65;2.85;;;24.50;53.30;;;;;;5010442;28;20080;-43
2022/07/20 00:58:39;;;;;;;7.40;3.30;;;24.40;53.30;;;;;;5014145;28;20522;-43
2022/07/20 01:01:06;;;;;;;5.47;3.50;;;24.40;53.40;;;;;;5011390;28;20133;-43
2022/07/20 01:03:34;;;;;;;10.48;3.50;;;24.30;53.50;;;;;;5012129;28;20084;-44
2022/07/20 01:06:01;;;;;;;11.02;3.35;;;24.30;53.60;;;;;;5024325;28;20128;-44
2022/07/20 01:08:28;;;;;;;6.57;3.15;;;24.20;53.60;;;;;;5013867;28;20121;-42
2022/07/20 01:10:54;;;;;;;4.65;2.90;;;24.20;53.70;;;;;;5012540;28;20041;-42
2022/07/20 01:13:21;;;;;;;9.60;3.28;;;24.20;53.80;;;;;;5012215;28;20124;-43
2022/07/20 01:15:48;;;;;;;8.68;3.22;;;24.10;53.80;;;;;;5011812;28;20077;-42
2022/07/20 01:18:15;;;;;;;12.88;3.67;;;24.10;53.90;;;;;;5011368;28;20097;-43
2022/07/20 01:20:45;;;;;;;7.63;3.20;;;24.10;54.10;;;;;;5011832;28;20133;-43
2022/07/20 01:23:13;;;;;;;11.37;3.93;;;24.00;54.20;;;;;;5014443;28;20073;-43
2022/07/20 01:25:40;;;;;;;9.88;3.05;;;24.00;54.30;;;;;;5011565;28;20465;-43
2022/07/20 01:28:07;;;;;;;4.30;2.92;;;23.90;54.30;;;;;;5011339;28;20490;-43
2022/07/20 01:30:34;;;;;;;15.23;3.63;;;23.90;54.40;;;;;;5012931;28;20406;-43
2022/07/20 01:33:00;;;;;;;8.50;3.60;;;23.90;55.30;;;;;;5011247;28;20068;-42
2022/07/20 01:35:27;;;;;;;10.13;3.40;;;23.80;54.70;;;;;;5007762;28;20147;-42
2022/07/20 01:37:54;;;;;;;7.68;3.40;;;23.80;54.70;;;;;;5008847;28;20050;-42
2022/07/20 01:40:22;;;;;;;6.60;4.07;;;23.80;54.70;;;;;;5011989;28;20133;-43
2022/07/20 01:42:49;;;;;;;8.07;4.07;;;23.70;54.70;;;;;;5013549;28;20561;-43
2022/07/20 01:45:16;;;;;;;6.45;3.30;;;23.70;54.90;;;;;;5020910;28;20132;-43
2022/07/20 01:47:42;;;;;;;8.07;3.65;;;23.60;54.80;;;;;;5011059;28;20076;-42
2022/07/20 01:50:10;;;;;;;8.48;3.90;;;23.60;54.90;;;;;;5014499;28;20168;-42
2022/07/20 01:52:36;;;;;;;9.65;3.40;;;23.60;55.00;;;;;;5016464;28;20128;-42
2022/07/20 01:55:04;;;;;;;8.40;3.60;;;23.60;55.10;;;;;;5011148;28;20073;-43
2022/07/20 01:57:32;;;;;;;5.95;3.70;;;23.50;55.20;;;;;;5012515;28;20133;-43
2022/07/20 01:59:59;;;;;;;7.07;3.35;;;23.50;55.20;;;;;;5010979;28;20054;-43
2022/07/20 02:02:25;;;;;;;9.95;3.65;;;23.40;55.40;;;;;;5013585;28;20965;-43
2022/07/20 02:04:52;;;;;;;6.38;3.50;;;23.40;55.50;;;;;;5015252;28;20449;-42
2022/07/20 02:07:19;;;;;;;10.82;3.70;;;23.30;55.60;;;;;;5012774;28;20137;-42
2022/07/20 02:09:46;;;;;;;5.93;3.70;;;23.30;55.60;;;;;;5010571;28;20136;-43
2022/07/20 02:12:13;;;;;;;6.30;3.97;;;23.30;55.70;;;;;;5011071;28;20088;-43
2022/07/20 02:14:41;;;;;;;7.82;3.70;;;23.30;55.80;;;;;;5011636;28;20137;-43
2022/07/20 02:17:07;;;;;;;8.10;3.67;;;23.20;55.80;;;;;;5012453;28;20057;-43
2022/07/20 02:19:34;;;;;;;8.27;3.80;;;23.20;55.80;;;;;;5009784;28;20139;-42
2022/07/20 02:22:01;;;;;;;12.82;4.03;;;23.20;55.80;;;;;;5019571;28;20133;-43
2022/07/20 02:24:28;;;;;;;12.30;3.78;;;23.20;56.00;;;;;;4995412;28;20046;-43
2022/07/20 02:26:55;;;;;;;5.80;3.53;;;23.10;56.00;;;;;;5019369;28;20081;-43
2022/07/20 02:29:21;;;;;;;11.25;3.30;;;23.10;56.10;;;;;;5011253;28;20070;-43
2022/07/20 02:31:49;;;;;;;7.55;3.35;;;23.10;56.10;;;;;;5012411;28;20124;-43
2022/07/20 02:34:16;;;;;;;7.13;3.78;;;23.00;56.20;;;;;;5010766;28;20081;-43
2022/07/20 02:36:43;;;;;;;5.68;3.70;;;23.00;56.30;;;;;;5015326;28;20050;-43
2022/07/20 02:39:10;;;;;;;7.88;3.95;;;23.00;56.40;;;;;;5015606;28;20135;-42
2022/07/20 02:41:36;;;;;;;5.30;3.60;;;23.00;56.50;;;;;;5010781;28;20054;-42
2022/07/20 02:44:03;;;;;;;6.07;3.35;;;22.90;56.50;;;;;;5017429;28;20049;-43
2022/07/20 02:46:30;;;;;;;10.00;3.97;;;22.90;56.60;;;;;;5014745;28;20057;-43
2022/07/20 02:48:58;;;;;;;9.75;4.20;;;22.80;56.60;;;;;;5015469;28;20498;-43
2022/07/20 02:51:25;;;;;;;18.58;4.10;;;22.80;56.70;;;;;;5016003;28;20461;-43
2022/07/20 02:53:52;;;;;;;8.73;3.90;;;22.80;56.80;;;;;;5013772;28;20554;-43
2022/07/20 02:56:18;;;;;;;10.27;4.03;;;22.80;56.90;;;;;;5015768;28;20056;-43
2022/07/20 02:58:45;;;;;;;11.77;5.57;;;22.70;57.00;;;;;;5015282;28;20085;-43
2022/07/20 03:01:12;;;;;;;7.50;3.83;;;22.70;57.00;;;;;;5014779;28;20092;-43
2022/07/20 03:03:39;;;;;;;15.75;3.65;;;22.70;57.10;;;;;;5014942;28;20082;-43
2022/07/20 03:06:07;;;;;;;8.93;4.10;;;22.70;57.20;;;;;;5015033;28;20053;-43
2022/07/20 03:08:34;;;;;;;9.00;3.88;;;22.70;57.20;;;;;;5014793;28;20073;-43
2022/07/20 03:11:01;;;;;;;9.15;4.20;;;22.60;57.30;;;;;;5015421;28;20112;-43
2022/07/20 03:13:28;;;;;;;6.50;3.38;;;22.60;57.30;;;;;;5014824;28;20049;-43
2022/07/20 03:15:54;;;;;;;10.80;3.80;;;22.60;57.40;;;;;;5015893;28;20080;-43
2022/07/20 03:18:21;;;;;;;4.80;3.70;;;22.60;57.50;;;;;;5013371;28;20081;-43
2022/07/20 03:20:48;;;;;;;13.02;4.35;;;22.50;57.60;;;;;;5015083;28;20103;-43
2022/07/20 03:23:16;;;;;;;10.60;3.80;;;22.50;57.70;;;;;;5013610;28;20093;-43
2022/07/20 03:25:43;;;;;;;10.80;3.95;;;22.50;57.80;;;;;;5015589;28;20125;-43
2022/07/20 03:28:10;;;;;;;8.63;3.95;;;22.40;57.70;;;;;;5015347;28;20082;-44
2022/07/20 03:30:37;;;;;;;5.75;4.10;;;22.40;57.70;;;;;;5012324;28;20077;-43
2022/07/20 03:33:03;;;;;;;8.30;4.15;;;22.40;58.00;;;;;;5014666;28;20457;-43
2022/07/20 03:35:30;;;;;;;13.80;4.55;;;22.30;58.10;;;;;;5014616;28;20081;-43
2022/07/20 03:37:57;;;;;;;9.60;3.70;;;22.30;58.20;;;;;;5014044;28;20053;-43
2022/07/20 03:40:25;;;;;;;8.57;4.13;;;22.30;58.80;;;;;;5016867;28;20042;-43
2022/07/20 03:42:52;;;;;;;10.65;4.20;;;22.30;58.20;;;;;;5007434;28;20088;-43
2022/07/20 03:45:19;;;;;;;9.95;4.13;;;22.20;58.20;;;;;;5007386;28;20140;-43
2022/07/20 03:47:45;;;;;;;7.82;3.67;;;22.20;58.40;;;;;;5015843;28;20103;-42
2022/07/20 03:50:12;;;;;;;6.43;3.97;;;22.20;58.30;;;;;;5018311;28;20125;-43
2022/07/20 03:52:39;;;;;;;10.57;3.80;;;22.20;58.40;;;;;;5033757;28;20092;-43
2022/07/20 03:55:07;;;;;;;9.68;4.20;;;22.20;58.40;;;;;;5021704;28;20054;-43
2022/07/20 03:57:35;;;;;;;6.78;4.40;;;22.10;58.60;;;;;;5013376;28;20060;-43
2022/07/20 04:00:01;;;;;;;6.80;4.13;;;22.10;58.60;;;;;;5012757;28;20580;-43
2022/07/20 04:02:28;;;;;;;8.98;3.97;;;22.10;58.60;;;;;;5015589;28;20471;-43
2022/07/20 04:04:55;;;;;;;10.30;3.88;;;22.10;58.80;;;;;;5012559;28;20049;-43
2022/07/20 04:07:22;;;;;;;8.15;4.18;;;22.10;58.80;;;;;;5017400;28;20054;-41
2022/07/20 04:09:48;;;;;;;13.05;4.35;;;22.10;58.80;;;;;;5012911;28;20483;-42
2022/07/20 04:12:17;;;;;;;15.75;4.72;;;22.10;58.80;;;;;;5023027;28;20077;-43
2022/07/20 04:14:45;;;;;;;15.32;4.05;;;22.10;58.90;;;;;;5014751;28;20050;-43
2022/07/20 04:17:12;;;;;;;12.73;4.68;;;22.10;58.80;;;;;;5029206;28;20085;-43
2022/07/20 04:19:39;;;;;;;10.32;4.47;;;22.00;58.80;;;;;;5024748;28;20136;-42
2022/07/20 04:22:05;;;;;;;8.07;3.90;;;22.10;59.00;;;;;;5028677;28;20057;-43
2022/07/20 04:24:32;;;;;;;7.15;3.95;;;22.00;59.00;;;;;;5014663;28;20142;-42
2022/07/20 04:26:59;;;;;;;14.40;5.60;;;22.00;59.00;;;;;;5014839;28;20145;-42
2022/07/20 04:29:26;;;;;;;11.82;4.68;;;22.10;59.30;;;;;;5013280;28;20042;-42
2022/07/20 04:31:55;;;;;;;9.43;4.15;;;22.00;59.30;;;;;;5013223;28;20050;-42
2022/07/20 04:34:21;;;;;;;11.60;4.57;;;22.00;59.60;;;;;;5010428;28;20153;-42
2022/07/20 04:36:48;;;;;;;6.38;4.10;;;22.00;59.60;;;;;;5013832;28;20494;-43
2022/07/20 04:39:15;;;;;;;15.93;4.47;;;22.00;59.80;;;;;;5014314;28;20454;-43
2022/07/20 04:41:42;;;;;;;7.40;4.13;;;22.00;59.80;;;;;;5013632;28;20131;-43
2022/07/20 04:44:08;;;;;;;10.02;4.75;;;22.00;59.90;;;;;;5012188;28;20058;-42
2022/07/20 04:46:35;;;;;;;13.32;4.20;;;22.00;59.90;;;;;;5014292;28;20058;-43
2022/07/20 04:49:03;;;;;;;12.18;4.35;;;22.00;59.80;;;;;;5014077;28;20104;-43
2022/07/20 04:51:30;;;;;;;15.23;4.60;;;22.00;59.80;;;;;;5013599;28;20111;-42
2022/07/20 04:53:57;;;;;;;7.90;4.38;;;22.00;60.00;;;;;;5013248;28;20060;-43
2022/07/20 04:56:24;;;;;;;7.97;4.53;;;22.00;60.00;;;;;;5014379;28;20089;-43
2022/07/20 04:58:52;;;;;;;12.25;4.55;;;22.00;60.00;;;;;;5013228;28;20506;-43
2022/07/20 05:01:20;;;;;;;14.13;4.90;;;22.00;60.90;;;;;;5013504;28;20054;-42
2022/07/20 05:03:46;;;;;;;6.82;4.40;;;22.00;60.40;;;;;;5013462;28;20054;-42
2022/07/20 05:06:15;;;;;;;8.93;4.07;;;22.00;60.50;;;;;;5012257;28;20050;-42
2022/07/20 05:08:41;;;;;;;9.48;4.78;;;22.00;60.70;;;;;;5013711;28;20157;-42
2022/07/20 05:11:08;;;;;;;13.15;4.13;;;22.10;61.20;;;;;;5010334;28;20085;-43
2022/07/20 05:13:35;;;;;;;8.77;4.50;;;22.10;60.70;;;;;;5011636;28;20045;-43
2022/07/20 05:16:01;;;;;;;7.32;4.85;;;22.10;60.70;;;;;;5013151;28;20046;-43
2022/07/20 05:18:28;;;;;;;12.48;4.57;;;22.10;60.60;;;;;;5012191;28;20049;-43
2022/07/20 05:20:55;;;;;;;9.82;4.18;;;22.10;60.70;;;;;;5013347;28;20050;-43
2022/07/20 05:23:24;;;;;;;10.40;4.35;;;22.20;60.80;;;;;;5002234;28;20050;-43
2022/07/20 05:25:50;;;;;;;10.25;4.35;;;22.20;60.90;;;;;;5012237;28;20072;-43
2022/07/20 05:28:18;;;;;;;10.05;4.22;;;22.20;60.80;;;;;;5013177;28;20092;-43
2022/07/20 05:30:45;;;;;;;13.10;4.93;;;22.30;60.70;;;;;;5011394;28;20409;-43
2022/07/20 05:33:12;;;;;;;8.90;4.18;;;22.40;60.60;;;;;;5011366;28;20045;-43
2022/07/20 05:35:39;;;;;;;11.50;4.97;;;22.50;60.50;;;;;;5010907;28;20084;-44
2022/07/20 05:38:05;;;;;;;9.02;4.53;;;22.60;60.30;;;;;;5011745;28;20048;-43
2022/07/20 05:40:33;;;;;;;9.63;4.32;;;22.70;59.80;;;;;;5011452;28;20056;-43
2022/07/20 05:43:00;;;;;;;11.52;4.45;;;22.80;60.10;;;;;;5013156;28;20092;-43
2022/07/20 05:45:27;;;;;;;13.80;4.22;;;22.90;60.00;;;;;;5011396;28;20097;-43
2022/07/20 05:47:55;;;;;;;16.35;5.07;;;23.00;59.80;;;;;;5011575;28;20450;-43
2022/07/20 05:50:22;;;;;;;10.15;4.45;;;23.20;59.70;;;;;;5010526;28;20049;-43
2022/07/20 05:52:48;;;;;;;9.27;4.45;;;23.30;59.50;;;;;;5012225;28;20125;-44
2022/07/20 05:55:15;;;;;;;12.93;4.65;;;23.40;59.30;;;;;;5011964;28;20085;-42
2022/07/20 05:57:43;;;;;;;7.68;4.30;;;23.50;59.40;;;;;;5010865;28;20097;-43
2022/07/20 06:00:11;;;;;;;7.90;4.30;;;23.60;59.50;;;;;;5010318;28;20132;-43
2022/07/20 06:02:37;;;;;;;10.82;4.90;;;23.80;59.30;;;;;;5010788;28;20076;-43
2022/07/20 06:05:05;;;;;;;13.88;4.65;;;23.90;59.00;;;;;;5010302;28;20486;-43
2022/07/20 06:07:32;;;;;;;11.13;4.78;;;24.00;59.10;;;;;;5010121;28;20045;-42
2022/07/20 06:09:59;;;;;;;14.38;4.60;;;24.20;59.30;;;;;;5012248;28;20553;-41
2022/07/20 06:12:28;;;;;;;14.50;4.72;;;24.30;59.10;;;;;;5010662;28;20113;-42
2022/07/20 06:14:57;;;;;;;12.30;4.93;;;24.50;59.10;;;;;;5010758;28;20142;-43
2022/07/20 06:17:23;;;;;;;9.02;4.90;;;24.60;58.30;;;;;;5012117;28;20049;-43
2022/07/20 06:19:50;;;;;;;15.00;4.80;;;24.80;58.30;;;;;;5012415;28;20125;-43
2022/07/20 06:22:17;;;;;;;12.27;5.03;;;24.90;57.60;;;;;;5012212;28;20069;-43
2022/07/20 06:24:43;;;;;;;9.93;4.80;;;25.00;57.20;;;;;;5011195;28;20137;-44
2022/07/20 06:27:10;;;;;;;10.80;4.72;;;25.10;56.80;;;;;;5009636;28;20139;-43
2022/07/20 06:29:37;;;;;;;9.13;4.85;;;25.30;56.60;;;;;;5010752;28;20050;-43
2022/07/20 06:32:06;;;;;;;10.50;4.50;;;25.50;56.30;;;;;;5012711;28;20092;-43
2022/07/20 06:34:33;;;;;;;11.82;5.28;;;25.60;55.90;;;;;;5012840;28;20554;-42
2022/07/20 06:37:00;;;;;;;12.95;4.50;;;25.70;56.10;;;;;;5011978;28;20601;-43
2022/07/20 06:39:27;;;;;;;25.95;4.88;;;25.80;56.10;;;;;;5011741;28;20104;-43
2022/07/20 06:41:53;;;;;;;11.23;4.32;;;26.00;55.60;;;;;;5011951;28;20108;-43
2022/07/20 06:44:20;;;;;;;13.25;4.70;;;26.00;55.60;;;;;;5010137;28;20498;-43
2022/07/20 06:46:47;;;;;;;12.75;5.50;;;26.20;55.50;;;;;;5012598;28;20089;-42
2022/07/20 06:49:15;;;;;;;15.68;5.28;;;26.30;55.00;;;;;;5009668;28;20521;-44
2022/07/20 06:51:42;;;;;;;10.52;4.90;;;26.40;55.40;;;;;;5008751;28;20060;-43
2022/07/20 06:54:09;;;;;;;12.88;4.82;;;26.50;55.00;;;;;;5011983;28;20082;-43
2022/07/20 06:56:36;;;;;;;11.80;4.90;;;26.60;54.90;;;;;;5011966;28;20147;-43
2022/07/20 06:59:02;;;;;;;14.95;5.03;;;26.70;54.60;;;;;;5011212;28;20096;-43
2022/07/20 07:01:29;;;;;;;13.15;4.82;;;26.80;54.60;;;;;;5011286;28;20422;-43
2022/07/20 07:03:56;;;;;;;16.25;5.72;;;27.00;55.00;;;;;;5011491;28;20198;-43
2022/07/20 07:06:27;;;;;;;13.45;5.43;;;27.10;54.90;;;;;;5011587;28;20141;-43
2022/07/20 07:08:54;;;;;;;;;;;27.30;55.00;;;;;;5012651;28;20552;-43
2022/07/20 07:11:20;;;;;;;12.23;5.68;;;27.40;55.10;;;;;;5011044;28;19979;-42
2022/07/20 07:13:47;;;;;;;14.60;6.82;;;27.50;55.30;;;;;;5011451;28;20057;-44
2022/07/20 07:16:14;;;;;;;11.75;6.90;;;27.60;55.40;;;;;;5011567;28;20057;-42
2022/07/20 07:18:40;;;;;;;17.75;7.82;;;27.70;55.70;;;;;;5011367;28;20136;-44
2022/07/20 07:21:07;;;;;;;14.50;7.70;;;27.90;56.10;;;;;;5011526;28;20108;-42
2022/07/20 07:23:35;;;;;;;18.27;8.43;;;28.10;56.40;;;;;;5013311;28;20517;-44
2022/07/20 07:26:02;;;;;;;17.20;9.77;;;28.20;56.30;;;;;;5015970;28;20124;-44
2022/07/20 07:28:29;;;;;;;14.30;8.30;;;28.30;56.60;;;;;;5015889;28;20053;-42
2022/07/20 07:30:56;;;;;;;17.63;8.90;;;28.50;56.60;;;;;;5012902;28;20049;-44
2022/07/20 07:33:25;;;;;;;22.77;8.57;;;28.60;56.40;;;;;;5013842;28;20081;-43
2022/07/20 07:35:52;;;;;;;16.15;8.73;;;28.70;56.60;;;;;;5013910;28;20060;-44
2022/07/20 07:38:18;;;;;;;15.43;9.02;;;28.80;56.60;;;;;;5014391;28;20125;-44
2022/07/20 07:40:46;;;;;;;15.30;7.72;;;28.90;56.60;;;;;;5012845;28;20136;-44
2022/07/20 07:43:13;;;;;;;17.02;8.45;;;29.00;56.70;;;;;;5013064;28;20085;-43
2022/07/20 07:45:45;;;;;;;15.15;8.00;;;29.10;56.80;;;;;;5013700;28;20077;-43
2022/07/20 07:48:12;;;;;;;16.48;9.30;;;29.20;57.10;;;;;;5003102;28;20477;-43
2022/07/20 07:50:39;;;;;;;21.17;11.40;;;29.40;57.20;;;;;;5014627;28;20459;-43
2022/07/20 07:53:07;;;;;;;17.88;10.10;;;29.50;57.50;;;;;;5014804;28;20046;-42
2022/07/20 07:55:34;;;;;;;23.63;12.45;;;29.60;57.60;;;;;;5013213;28;20046;-43
2022/07/20 07:58:02;;;;;;;24.25;14.25;;;29.70;57.90;;;;;;5013920;28;20133;-43
2022/07/20 08:00:29;;;;;;;25.52;14.02;;;29.80;58.10;;;;;;5012666;28;20490;-44
2022/07/20 08:02:56;;;;;;;25.40;14.10;;;29.90;58.40;;;;;;5012475;28;20406;-42
2022/07/20 08:05:23;;;;;;;26.63;14.75;;;30.00;58.90;;;;;;5011861;28;20125;-42
2022/07/20 08:07:49;;;;;;;23.92;14.57;;;30.20;58.80;;;;;;5013038;28;20050;-44
2022/07/20 08:10:16;;;;;;;32.85;14.98;;;30.30;58.90;;;;;;5013275;28;20082;-43
2022/07/20 08:12:43;;;;;;;25.55;15.15;;;30.30;58.70;;;;;;5014553;28;20060;-44
2022/07/20 08:15:12;;;;;;;24.27;15.10;;;30.30;58.90;;;;;;5011658;28;20501;-43
2022/07/20 08:17:38;;;;;;;32.15;15.68;;;30.30;59.10;;;;;;5012998;28;20089;-44
2022/07/20 08:20:06;;;;;;;24.88;16.42;;;30.20;59.60;;;;;;5039362;28;20089;-44
2022/07/20 08:22:33;;;;;;;26.88;17.67;;;30.30;59.80;;;;;;5013579;28;20442;-43
2022/07/20 08:25:00;;;;;;;26.95;15.88;;;30.40;60.20;;;;;;5002614;28;20089;-43
2022/07/20 08:27:26;;;;;;;31.40;17.77;;;30.50;60.20;;;;;;5013404;28;20056;-43
2022/07/20 08:29:58;;;;;;;28.38;17.85;;;30.60;60.30;;;;;;5013496;28;20077;-44
2022/07/20 08:32:26;;;;;;;28.02;18.50;;;30.70;60.40;;;;;;5012059;28;20465;-44
2022/07/20 08:34:52;;;;;;;31.13;17.55;;;30.70;60.80;;;;;;5012476;28;20785;-43
2022/07/20 08:37:19;;;;;;;31.75;17.90;;;30.70;60.80;;;;;;5013846;28;20562;-44
2022/07/20 08:39:46;;;;;;;27.70;19.00;;;30.90;60.90;;;;;;5014624;28;20133;-45
2022/07/20 08:42:14;;;;;;;33.75;19.50;;;31.00;60.20;;;;;;5012785;28;20049;-44
2022/07/20 08:44:41;;;;;;;31.38;18.25;;;31.10;59.80;;;;;;5006497;28;20552;-44
2022/07/20 08:47:08;;;;;;;28.67;19.00;;;31.20;59.50;;;;;;5012988;28;20391;-44
2022/07/20 08:49:36;;;;;;;37.92;19.75;;;31.30;59.60;;;;;;5014306;28;20054;-43
2022/07/20 08:52:03;;;;;;;26.38;17.98;;;31.40;59.00;;;;;;5013334;28;20132;-44
2022/07/20 08:54:29;;;;;;;27.38;18.02;;;31.40;59.30;;;;;;5014304;28;20084;-43
2022/07/20 08:56:56;;;;;;;31.75;18.35;;;31.50;59.50;;;;;;5013132;28;20054;-44
2022/07/20 08:59:23;;;;;;;34.47;18.80;;;31.60;59.60;;;;;;5014031;28;20129;-43
2022/07/20 09:01:59;;;;;;;33.92;20.65;;;31.60;59.80;;;;;;5012654;28;20092;-44
2022/07/20 09:04:26;;;;;;;32.70;19.05;;;31.70;59.60;;;;;;5011469;28;20141;-43
2022/07/20 09:06:54;;;;;;;34.28;20.23;;;31.80;58.50;;;;;;5013034;28;20077;-42
2022/07/20 09:09:21;;;;;;;34.13;20.13;;;31.70;58.20;;;;;;5013278;28;20058;-43
2022/07/20 09:11:48;;;;;;;32.95;20.90;;;31.80;58.70;;;;;;5013814;28;20050;-43
2022/07/20 09:14:16;;;;;;;36.95;21.95;;;31.90;58.70;;;;;;5010549;28;20474;-42
2022/07/20 09:16:46;;;;;;;36.58;22.63;;;31.90;58.40;;;;;;5005776;28;20050;-43
2022/07/20 09:19:13;;;;;;;39.60;23.67;;;32.00;58.20;;;;;;5009464;28;20045;-43
2022/07/20 09:21:40;;;;;;;39.65;22.73;;;32.00;58.00;;;;;;5010979;28;20042;-44
2022/07/20 09:24:09;;;;;;;35.08;23.90;;;32.00;58.20;;;;;;5010823;28;20077;-44
2022/07/20 09:26:36;;;;;;;38.15;23.48;;;32.00;57.90;;;;;;5013796;28;20057;-43
2022/07/20 09:29:05;;;;;;;37.58;24.02;;;32.00;58.20;;;;;;5011467;28;20077;-44
2022/07/20 09:31:33;;;;;;;38.90;23.42;;;32.10;57.90;;;;;;5013688;28;20058;-44
2022/07/20 09:34:00;;;;;;;32.60;23.25;;;32.20;58.10;;;;;;5011898;28;20045;-43
2022/07/20 09:36:28;;;;;;;33.75;21.70;;;32.20;57.60;;;;;;5013776;28;20471;-44
2022/07/20 09:38:55;;;;;;;31.52;21.67;;;32.20;56.20;;;;;;5013302;28;20566;-43
2022/07/20 09:41:24;;;;;;;31.83;20.73;;;32.10;56.00;;;;;;5010617;28;20129;-43
2022/07/20 09:43:51;;;;;;;36.40;21.25;;;32.10;56.60;;;;;;5011632;28;20050;-43
2022/07/20 09:46:18;;;;;;;33.65;20.10;;;32.20;57.00;;;;;;5010823;28;20500;-42
2022/07/20 09:48:46;;;;;;;34.83;19.48;;;32.30;57.10;;;;;;5008889;28;20104;-42
2022/07/20 09:51:23;;;;;;;32.50;18.83;;;32.40;56.60;;;;;;5007381;28;20050;-43
2022/07/20 09:53:50;;;;;;;31.58;19.42;;;32.50;54.80;;;;;;5009772;28;20466;-44
2022/07/20 09:56:17;;;;;;;29.95;18.45;;;32.60;54.30;;;;;;5012462;28;20136;-43
2022/07/20 09:58:47;;;;;;;26.80;17.40;;;32.60;54.80;;;;;;5012203;28;20077;-43
2022/07/20 10:01:17;;;;;;;26.90;18.00;;;32.60;54.60;;;;;;5012334;28;20137;-43
2022/07/20 10:03:45;;;;;;;26.08;16.80;;;32.70;55.00;;;;;;5012259;28;20046;-43
2022/07/20 10:06:11;;;;;;;26.17;16.38;;;32.80;54.90;;;;;;5012117;28;20402;-43
2022/07/20 10:08:38;;;;;;;26.65;15.65;;;32.80;54.10;;;;;;5010937;28;20466;-44
2022/07/20 10:11:05;;;;;;;26.17;15.45;;;32.90;53.60;;;;;;5007920;28;20100;-44
2022/07/20 10:13:32;;;;;;;21.77;15.23;;;32.90;53.00;;;;;;5041901;28;20061;-42
2022/07/20 10:16:03;;;;;;;28.15;14.75;;;32.90;52.30;;;;;;5011993;28;20133;-43
2022/07/20 10:18:30;;;;;;;24.67;14.98;;;32.90;52.30;;;;;;5000893;28;20052;-43
2022/07/20 10:20:56;;;;;;;28.73;14.63;;;33.00;52.30;;;;;;5012175;28;20453;-43
2022/07/20 10:23:32;;;;;;;22.25;14.45;;;33.00;52.20;;;;;;5011293;28;20128;-43
2022/07/20 10:25:58;;;;;;;19.70;13.65;;;33.20;51.90;;;;;;5010706;28;20050;-44
2022/07/20 10:28:37;;;;;;;21.27;13.82;;;33.30;52.00;;;;;;5010857;28;20570;-44
2022/07/20 10:31:08;;;;;;;17.60;13.00;;;33.50;52.50;;;;;;5010714;28;20088;-42
2022/07/20 10:33:36;;;;;;;24.85;13.95;;;33.60;51.20;;;;;;5010043;28;20096;-44
2022/07/20 10:39:33;;;;;;;17.70;12.98;;;33.70;50.60;;;;;;5011125;28;20045;-43
2022/07/20 10:42:26;;;;;;;22.67;12.60;;;33.70;50.50;;;;;;5011695;28;20471;-42
2022/07/20 10:44:53;;;;;;;18.58;12.43;;;33.80;50.90;;;;;;5011476;28;20054;-43
2022/07/20 10:47:43;;;;;;;21.30;12.30;;;33.90;50.20;;;;;;5011976;28;20050;-43
2022/07/20 10:50:10;;;;;;;21.58;10.85;;;33.90;50.30;;;;;;5012535;28;20065;-43
2022/07/20 10:52:37;;;;;;;18.77;11.63;;;33.90;50.40;;;;;;5011764;28;20060;-44
2022/07/20 10:55:04;;;;;;;19.60;12.05;;;34.10;50.40;;;;;;5011545;28;20141;-43
2022/07/20 10:57:31;;;;;;;16.88;11.73;;;34.20;50.30;;;;;;5012476;28;20041;-43
2022/07/20 11:00:09;;;;;;;20.55;11.15;;;34.30;49.90;;;;;;5015153;28;20057;-44
2022/07/20 11:02:36;;;;;;;17.92;10.88;;;34.40;50.20;;;;;;5015504;28;20061;-44
2022/07/20 11:05:05;;;;;;;18.65;10.70;;;34.40;50.40;;;;;;5015027;28;20549;-44
2022/07/20 11:07:32;;;;;;;19.05;10.10;;;34.50;50.30;;;;;;5012759;28;20132;-44
2022/07/20 11:10:00;;;;;;;18.77;10.27;;;34.60;49.90;;;;;;4996530;28;20085;-44
2022/07/20 11:12:28;;;;;;;19.15;10.63;;;34.50;49.80;;;;;;4995515;28;20787;-44
2022/07/20 11:14:55;;;;;;;13.48;9.80;;;34.50;49.90;;;;;;5014922;28;20104;-44
2022/07/20 11:17:21;;;;;;;19.58;10.50;;;34.60;49.30;;;;;;5015417;28;20100;-43
2022/07/20 11:19:48;;;;;;;24.25;10.55;;;34.70;48.90;;;;;;5001647;28;20093;-43
2022/07/20 11:22:16;;;;;;;15.18;9.27;;;34.70;47.70;;;;;;5002013;28;20078;-43
2022/07/20 11:24:43;;;;;;;21.77;11.07;;;34.70;48.00;;;;;;5016001;28;20144;-42
2022/07/20 11:27:14;;;;;;;16.50;10.52;;;34.60;48.20;;;;;;5011886;28;20088;-43
2022/07/20 11:29:46;;;;;;;15.82;9.18;;;34.60;48.00;;;;;;5013885;28;20053;-44
2022/07/20 11:32:13;;;;;;;13.88;8.85;;;34.50;48.30;;;;;;5014972;28;20077;-42
2022/07/20 11:34:44;;;;;;;17.25;9.95;;;34.60;48.60;;;;;;5015008;28;20054;-44
2022/07/20 11:37:11;;;;;;;14.45;9.60;;;34.70;48.60;;;;;;5014238;28;20050;-43
2022/07/20 11:39:39;;;;;;;18.85;8.98;;;34.70;48.80;;;;;;5014621;28;20104;-42
2022/07/20 11:42:11;;;;;;;11.57;8.68;;;34.60;48.50;;;;;;5015748;28;20093;-43
2022/07/20 11:44:37;;;;;;;19.45;9.57;;;34.50;48.30;;;;;;5014645;28;20541;-43
2022/07/20 11:47:04;;;;;;;13.38;8.57;;;34.50;48.10;;;;;;5015570;28;20085;-43
2022/07/20 11:49:31;;;;;;;12.93;8.80;;;34.50;48.20;;;;;;5014177;28;20058;-43
2022/07/20 11:51:59;;;;;;;15.77;8.40;;;34.50;48.80;;;;;;5015098;28;20088;-43
2022/07/20 11:54:27;;;;;;;13.52;8.15;;;34.60;49.30;;;;;;5016271;28;20096;-44
2022/07/20 11:56:55;;;;;;;14.63;8.38;;;34.60;48.30;;;;;;5015615;28;20046;-44
2022/07/20 11:59:22;;;;;;;17.02;8.40;;;34.70;48.40;;;;;;5013199;28;20569;-44
2022/07/20 12:01:50;;;;;;;15.77;8.20;;;34.80;47.80;;;;;;5014408;28;20525;-44
2022/07/20 12:04:17;;;;;;;13.48;8.55;;;34.90;48.00;;;;;;5014446;28;20697;-43
2022/07/20 12:06:44;;;;;;;16.25;8.45;;;35.00;48.00;;;;;;5015140;28;20062;-43
2022/07/20 12:09:11;;;;;;;12.68;7.55;;;35.10;47.70;;;;;;5012138;28;20486;-44
2022/07/20 12:11:55;;;;;;;10.00;7.30;;;35.10;47.60;;;;;;5013340;28;20138;-44
2022/07/20 12:14:29;;;;;;;13.45;7.43;;;35.20;47.70;;;;;;5012965;28;20057;-43
2022/07/20 12:16:56;;;;;;;12.70;6.97;;;35.20;47.10;;;;;;5013853;28;20085;-42
2022/07/20 12:19:23;;;;;;;10.10;6.95;;;35.20;46.50;;;;;;5010920;28;20140;-42
2022/07/20 12:21:50;;;;;;;12.13;6.90;;;35.20;46.20;;;;;;5014909;28;20046;-43
2022/07/20 12:24:16;;;;;;;13.80;6.78;;;35.20;46.30;;;;;;5012796;28;20049;-43
2022/07/20 12:26:44;;;;;;;12.00;6.90;;;35.20;46.40;;;;;;5012964;28;20057;-43
2022/07/20 12:29:20;;;;;;;10.30;6.78;;;35.20;46.60;;;;;;4994121;28;20085;-43
2022/07/20 12:31:56;;;;;;;17.55;6.95;;;35.30;46.60;;;;;;4995305;28;20459;-44
2022/07/20 12:34:23;;;;;;;12.63;6.97;;;35.40;46.50;;;;;;5009221;28;20069;-43
2022/07/20 12:36:51;;;;;;;13.95;6.68;;;35.50;46.90;;;;;;5014576;28;20490;-43
2022/07/20 12:39:35;;;;;;;16.88;7.15;;;35.60;46.30;;;;;;5014722;28;20133;-44
2022/07/20 12:42:09;;;;;;;12.20;6.47;;;35.60;45.40;;;;;;5012500;28;20541;-43
2022/07/20 12:44:37;;;;;;;12.85;6.68;;;35.60;45.20;;;;;;5003630;28;20082;-44
2022/07/20 12:47:05;;;;;;;11.02;7.35;;;35.70;45.70;;;;;;5013696;28;20466;-44